Bourbourg (59) - B

Date : 25/01/2015
Distance : 2,600 km

Place Nom Licence Catégorie Club Temps min/km CN à J-60 Points Différence Nouveau CN
1 MERCIER Agnès 23079 D21 5907NO 0:17:42 6'48 5362 4600 -762 5338
2 FLORENT Roxane 26927 D20 5907NO 0:18:23 7'04 4584 4429 -155 4602
3 DUQUENNE Audrey 23885 D20 5907NO 0:18:32 7'07 5115 4394 -721 5089
4 LEMAIRE Cecilia 8952 D21 5907NO 0:19:18 7'25 4503 4219 -284 4573
5 VANDOMME Elodie 23560 D35 6208NO 0:19:24 7'27 4312 4197 -115 4307
6 DUBREUCQ Marie 25100 D21 5906NO 0:19:37 7'32 3944 4151 +207 4035
7 DERYCKERE Juliette 30133 D35 5906NO 0:19:42 7'34 0 4133 2525
8 DESSAILLY Aurélie 26339 D35 5909NO 0:19:56 7'40 4180 4085 -95 4250
9 VIEQUE Karine 25018 D40 6208NO 0:20:16 7'47 3507 4018 +511 3609
10 LOTERIE Murielle 7044 D45 5907NO 0:20:48 8'00 3726 3915 +189 3763
11 ROUX Catherine 13270 D45 6205NO 0:20:56 8'03 4287 3890 -397 4287
12 MOULIERE Camille 2892 D40 0207PI 0:21:41 8'20 4895 3755 -1140 4890
13 ROLIN Charlotte 23947 D35 6208NO 0:22:04 8'29 3264 3690 +426 3547
14 DURIEZ Caroline 24170 D21 6208NO 0:22:07 8'30 3628 3682 +54 3706
15 ARROQUI Anne-sophie 23424 D45 5909NO 0:22:42 8'43 3314 3587 +273 3314
16 ARROQUI Mathilde 23425 D21 5909NO 0:22:42 8'43 2782 3587 +805 3088
17 DELCUSE Patricia 29299 D35 6205NO 0:23:25 9'00 2777 3477 +700 2961
18 GERBEAUX Marie-jeanne 22417 D60 6205NO 0:23:32 9'03 3145 3460 +315 3236
19 DUBREUCQ Perrine 25471 D21 5906NO 0:24:18 9'20 3351 0
20 GRENOUILLAT Annick 13087 D55 5907NO 0:24:35 9'27 2065 3312 +1247 2384
21 JASKINA Catherine 28714 D50 6203NO 0:27:09 10'26 2361 2999 +638 2602
22 TORZ-DRUON Magali 10081 D60 5906NO 0:27:15 10'28 2584 2988 +404 2603
23 BOULANGER Isabelle 10639 D55 5907NO 0:28:06 10'48 3069 2898 -171 3099
24 PECQUEUR Sylvie 20425 D50 5906NO 0:28:13 10'51 2913 2886 -27 2906
25 SCHIMPF Géraldine 30915 D40 5909NO 0:30:35 11'45 2663 0
26 JACQUEMART Marina 28528 D21 5909NO 0:30:56 11'53 2148 2632 +484 2331
27 POULAIN Odile 1948 D50 5909NO 0:33:36 12'55 2770 2423 -347 2710
28 THERY Sophie 27606 D40 6203NO 0:34:14 13'10 2096 2379 +283 2312
29 BUCKMAN Laetitia 30728 D35 5909NO 0:36:19 13'58 2242 0
30 BAUD Sandrine 27612 D40 6203NO 0:36:43 14'07 2346 2218 -128 2332
31 PHILIPPS Marie Laure 28718 D50 6203NO 0:41:21 15'54 2126 1969 -157 2362
32 DURIEZ Corinne 27971 D50 6203NO 0:42:30 16'20 1992 1916 -76 1992
33 LUDEWIG-JAMES Carol 15894 D75 5907NO 0:57:15 22'01 1539 1422 -117 1543